Flight Track Log - Related Links

Times and Time Zones

All times are in EDT time to prevent confusion due to time zone crossing. See the GGN7281 flight status page for this flight to view local times or setup timezone preferences in your user account.

Time Position Orientation Groundspeed Altitude Reporting Facility
EDT Latitude Longitude Course Direction KTS MPH feet Rate Location/Type
Wed 12:05:45 PM 42.7381 -73.8111 171° South 141 162 900  Level Boston Center
Wed 12:06:03 PM 42.7236 -73.8081 171° South 147 169 1,500 1,692 Climbing Boston Center
Wed 12:07:03 PM 42.7164 -73.8700 261° West 205 236 3,100 1,762 Climbing Boston Center
Wed 12:08:26 PM 42.7361 -73.9636 286° West 196 226 5,700 1,678 Climbing Boston Center
Wed 12:09:26 PM 42.7517 -74.0406 285° West 206 237 7,100 1,300 Climbing Boston Center
Wed 12:10:26 PM 42.7714 -74.1172 289° West 206 237 8,300 1,250 Climbing Boston Center
Wed 12:11:26 PM 42.7869 -74.2025 284° West 225 259 9,600 1,250 Climbing Boston Center
Wed 12:12:26 PM 42.7939 -74.2906 276° West 233 268 10,800 1,200 Climbing Boston Center
Wed 12:13:26 PM 42.7944 -74.3783 271° West 233 268 12,000 1,100 Climbing Boston Center
Wed 12:14:26 PM 42.7992 -74.4633 274° West 233 268 13,000 1,200 Climbing Boston Center
Wed 12:15:26 PM 42.8039 -74.5511 274° West 233 268 14,400 1,300 Climbing Boston Center
Wed 12:16:26 PM 42.8083 -74.6419 274° West 233 268 15,600 1,250 Climbing Boston Center
Wed 12:17:26 PM 42.8150 -74.7300 276° West 233 268 16,900 1,150 Climbing Boston Center
Wed 12:18:26 PM 42.8175 -74.8150 272° West 242 278 17,900 800 Climbing Boston Center
Wed 12:19:26 PM 42.8197 -74.9086 272° West 247 284 18,500 850 Climbing Boston Center
Wed 12:20:26 PM 42.8239 -75.0022 274° West 252 290 19,600 700 Climbing Boston Center
Wed 12:21:26 PM 42.8300 -75.1014 275° West 252 290 19,900 200 Climbing Boston Center
Wed 12:22:26 PM 42.8358 -75.2036 274° West 264 304 20,000 50 Climbing Boston Center
Wed 12:23:26 PM 42.8394 -75.3086 273° West 277 319 20,000  Level Boston Center
Wed 12:24:26 PM 42.8431 -75.4136 273° West 277 319 20,000  Level Boston Center
Wed 12:25:26 PM 42.8467 -75.5156 273° West 277 319 20,000  Level Boston Center
Wed 12:26:26 PM 42.8500 -75.6178 273° West 277 319 20,000  Level Boston Center
Wed 12:27:26 PM 42.8575 -75.7231 276° West 277 319 20,000 -50 Level Boston Center
Wed 12:28:26 PM 42.8606 -75.8281 272° West 277 319 19,900 50 Descending Boston Center
Wed 12:29:26 PM 42.8636 -75.9331 272° West 277 319 20,100 50 Climbing Boston Center
Wed 12:30:26 PM 42.8669 -76.0325 273° West 277 319 20,000  Descending Boston Center
Wed 12:32:21 PM 42.8728 -76.2453 272° West 273 314 20,100 -34 Climbing Cleveland Center
Wed 12:33:21 PM 42.8744 -76.3472 271° West 273 314 19,900 -50 Descending Cleveland Center
Wed 12:34:21 PM 42.8825 -76.4517 276° West 273 314 20,000  Climbing Cleveland Center
Wed 12:35:21 PM 42.8839 -76.5508 271° West 273 314 19,900  Descending Cleveland Center
Wed 12:36:21 PM 42.8875 -76.6553 273° West 273 314 20,000  Climbing Cleveland Center
Wed 12:37:21 PM 42.9031 -76.7481 283° West 273 314 19,900  Descending Cleveland Center
Wed 12:38:21 PM 42.9208 -76.8489 284° West 273 314 20,000 50 Climbing Cleveland Center
Wed 12:39:21 PM 42.9389 -76.9500 284° West 273 314 20,000  Level Cleveland Center
Wed 12:40:21 PM 42.9567 -77.0539 283° West 278 320 20,000  Level Cleveland Center
Wed 12:41:21 PM 42.9722 -77.1553 282° West 278 320 20,000  Level Cleveland Center
Wed 12:42:21 PM 42.9897 -77.2567 283° West 278 320 20,000 -100 Level Cleveland Center
Wed 12:43:21 PM 43.0072 -77.3578 283° West 278 320 19,800 -700 Descending Cleveland Center
Wed 12:44:21 PM 43.0247 -77.4678 282° West 283 326 18,600 -1,000 Descending Cleveland Center
Wed 12:45:21 PM 43.0381 -77.5722 280° West 283 326 17,800 -900 Descending Cleveland Center
Wed 12:46:21 PM 43.0489 -77.6767 278° West 283 326 16,800 -1,050 Descending Cleveland Center
Wed 12:47:21 PM 43.0661 -77.7839 282° West 288 331 15,700 -1,100 Descending Cleveland Center
Wed 12:48:21 PM 43.0853 -77.8856 285° West 288 331 14,600 -850 Descending Cleveland Center
Wed 12:49:21 PM 43.1003 -77.9900 281° West 288 331 14,000 -300 Descending Cleveland Center
Wed 12:50:21 PM 43.1147 -78.0861 282° West 277 319 14,000 50 Level Cleveland Center
Wed 12:51:21 PM 43.1294 -78.1850 282° West 264 304 14,100  Climbing Cleveland Center
Wed 12:52:21 PM 43.1439 -78.2869 281° West 264 304 14,000 -50 Descending Cleveland Center
Wed 12:53:21 PM 43.1606 -78.3917 282° West 264 304 14,000  Level Cleveland Center
Wed 12:54:21 PM 43.1808 -78.4792 288° West 264 304 14,000  Level Cleveland Center
Wed 12:55:21 PM 43.1931 -78.5758 280° West 275 316 14,000  Level Cleveland Center
Wed 12:56:21 PM 43.2031 -78.6750 278° West 275 316 14,000  Level Cleveland Center
Wed 12:57:21 PM 43.2172 -78.7744 281° West 275 316 14,000 -440 Level Cleveland Center
Wed 12:58:51 PM 43.2333 -78.9000 280° West 270 311 12,900 -960 Descending Toronto Center
Wed 12:59:51 PM 43.2500 -79.0167 281° West 280 322 11,600 -1,300 Descending Toronto Center

Login

Don't have an account? Register now (free) for customized features, flight alerts, and more!